sensor_id;sensor_type;location;lat;lon;timestamp;P1;durP1;ratioP1;P2;durP2;ratioP2
64641;SDS011;59936;51.490;5.436;2023-03-14T00:03:20;4.00;;;1.60;;
64641;SDS011;59936;51.490;5.436;2023-03-14T00:08:11;5.30;;;2.05;;
64641;SDS011;59936;51.490;5.436;2023-03-14T00:13:03;8.10;;;2.10;;
64641;SDS011;59936;51.490;5.436;2023-03-14T00:15:30;5.00;;;1.50;;
64641;SDS011;59936;51.490;5.436;2023-03-14T00:17:58;4.00;;;1.80;;
64641;SDS011;59936;51.490;5.436;2023-03-14T00:22:49;4.90;;;1.25;;
64641;SDS011;59936;51.490;5.436;2023-03-14T00:27:41;6.95;;;1.70;;
64641;SDS011;59936;51.490;5.436;2023-03-14T00:32:32;6.90;;;1.90;;
64641;SDS011;59936;51.490;5.436;2023-03-14T00:37:24;4.70;;;1.50;;
64641;SDS011;59936;51.490;5.436;2023-03-14T00:42:16;4.00;;;1.20;;
64641;SDS011;59936;51.490;5.436;2023-03-14T00:47:08;5.05;;;1.65;;
64641;SDS011;59936;51.490;5.436;2023-03-14T00:51:59;5.20;;;1.70;;
64641;SDS011;59936;51.490;5.436;2023-03-14T00:56:51;6.75;;;2.10;;
64641;SDS011;59936;51.490;5.436;2023-03-14T01:01:42;3.55;;;1.10;;
64641;SDS011;59936;51.490;5.436;2023-03-14T01:04:08;4.70;;;1.40;;
64641;SDS011;59936;51.490;5.436;2023-03-14T01:06:35;6.30;;;1.20;;
64641;SDS011;59936;51.490;5.436;2023-03-14T01:11:28;10.05;;;1.75;;
64641;SDS011;59936;51.490;5.436;2023-03-14T01:13:56;4.70;;;1.40;;
64641;SDS011;59936;51.490;5.436;2023-03-14T01:18:48;6.20;;;1.50;;
64641;SDS011;59936;51.490;5.436;2023-03-14T01:21:16;5.10;;;1.00;;
64641;SDS011;59936;51.490;5.436;2023-03-14T01:23:48;4.80;;;1.50;;
64641;SDS011;59936;51.490;5.436;2023-03-14T01:26:16;4.50;;;1.10;;
64641;SDS011;59936;51.490;5.436;2023-03-14T01:28:44;5.60;;;0.90;;
64641;SDS011;59936;51.490;5.436;2023-03-14T01:31:11;7.20;;;1.40;;
64641;SDS011;59936;51.490;5.436;2023-03-14T01:33:37;6.50;;;1.60;;
64641;SDS011;59936;51.490;5.436;2023-03-14T01:36:04;8.70;;;1.70;;
64641;SDS011;59936;51.490;5.436;2023-03-14T01:38:31;3.10;;;1.20;;
64641;SDS011;59936;51.490;5.436;2023-03-14T01:40:59;9.30;;;1.60;;
64641;SDS011;59936;51.490;5.436;2023-03-14T01:51:25;4.10;;;1.70;;
64641;SDS011;59936;51.490;5.436;2023-03-14T01:54:12;3.50;;;1.20;;
64641;SDS011;59936;51.490;5.436;2023-03-14T01:56:45;9.70;;;1.60;;
64641;SDS011;59936;51.490;5.436;2023-03-14T01:59:15;4.70;;;1.70;;
64641;SDS011;59936;51.490;5.436;2023-03-14T02:04:08;5.70;;;1.40;;
64641;SDS011;59936;51.490;5.436;2023-03-14T02:06:40;17.70;;;2.10;;
64641;SDS011;59936;51.490;5.436;2023-03-14T02:09:12;4.90;;;2.10;;
64641;SDS011;59936;51.490;5.436;2023-03-14T02:14:03;6.20;;;1.45;;
64641;SDS011;59936;51.490;5.436;2023-03-14T02:16:30;4.30;;;1.60;;
64641;SDS011;59936;51.490;5.436;2023-03-14T02:18:56;1.70;;;1.20;;
64641;SDS011;59936;51.490;5.436;2023-03-14T02:27:03;7.70;;;1.70;;
64641;SDS011;59936;51.490;5.436;2023-03-14T02:29:31;6.80;;;1.90;;
64641;SDS011;59936;51.490;5.436;2023-03-14T02:32:00;4.20;;;1.50;;
64641;SDS011;59936;51.490;5.436;2023-03-14T02:34:27;7.00;;;1.60;;
64641;SDS011;59936;51.490;5.436;2023-03-14T02:36:53;7.40;;;1.80;;
64641;SDS011;59936;51.490;5.436;2023-03-14T02:41:49;7.30;;;1.80;;
64641;SDS011;59936;51.490;5.436;2023-03-14T02:46:41;8.60;;;1.90;;
64641;SDS011;59936;51.490;5.436;2023-03-14T02:49:08;2.60;;;1.20;;
64641;SDS011;59936;51.490;5.436;2023-03-14T02:51:38;11.00;;;2.30;;
64641;SDS011;59936;51.490;5.436;2023-03-14T02:54:08;7.40;;;1.90;;
64641;SDS011;59936;51.490;5.436;2023-03-14T02:56:34;9.40;;;2.10;;
64641;SDS011;59936;51.490;5.436;2023-03-14T03:01:27;8.60;;;2.10;;
64641;SDS011;59936;51.490;5.436;2023-03-14T03:06:19;9.70;;;2.00;;
64641;SDS011;59936;51.490;5.436;2023-03-14T03:11:10;5.55;;;1.75;;
64641;SDS011;59936;51.490;5.436;2023-03-14T03:16:02;4.50;;;1.80;;
64641;SDS011;59936;51.490;5.436;2023-03-14T03:18:28;6.40;;;1.80;;
64641;SDS011;59936;51.490;5.436;2023-03-14T03:23:20;6.55;;;1.80;;
64641;SDS011;59936;51.490;5.436;2023-03-14T03:28:15;6.40;;;1.30;;
64641;SDS011;59936;51.490;5.436;2023-03-14T03:33:07;6.40;;;2.00;;
64641;SDS011;59936;51.490;5.436;2023-03-14T03:35:33;6.00;;;2.10;;
64641;SDS011;59936;51.490;5.436;2023-03-14T03:40:25;7.15;;;1.85;;
64641;SDS011;59936;51.490;5.436;2023-03-14T03:42:51;3.90;;;1.70;;
64641;SDS011;59936;51.490;5.436;2023-03-14T03:47:43;3.65;;;1.65;;
64641;SDS011;59936;51.490;5.436;2023-03-14T03:52:35;6.10;;;1.80;;
64641;SDS011;59936;51.490;5.436;2023-03-14T03:57:26;7.70;;;1.65;;
64641;SDS011;59936;51.490;5.436;2023-03-14T04:02:18;5.80;;;1.65;;
64641;SDS011;59936;51.490;5.436;2023-03-14T04:07:09;3.70;;;1.95;;
64641;SDS011;59936;51.490;5.436;2023-03-14T04:12:02;5.00;;;1.50;;
64641;SDS011;59936;51.490;5.436;2023-03-14T04:16:54;8.35;;;1.80;;
64641;SDS011;59936;51.490;5.436;2023-03-14T04:21:46;4.30;;;1.80;;
64641;SDS011;59936;51.490;5.436;2023-03-14T04:24:12;4.00;;;1.50;;
64641;SDS011;59936;51.490;5.436;2023-03-14T04:26:38;4.40;;;1.10;;
64641;SDS011;59936;51.490;5.436;2023-03-14T04:31:30;4.45;;;1.30;;
64641;SDS011;59936;51.490;5.436;2023-03-14T04:36:21;5.30;;;1.25;;
64641;SDS011;59936;51.490;5.436;2023-03-14T04:41:13;2.50;;;0.95;;
64641;SDS011;59936;51.490;5.436;2023-03-14T04:46:04;2.05;;;0.90;;
64641;SDS011;59936;51.490;5.436;2023-03-14T04:48:31;2.50;;;1.10;;
64641;SDS011;59936;51.490;5.436;2023-03-14T04:53:22;3.75;;;1.30;;
64641;SDS011;59936;51.490;5.436;2023-03-14T04:58:15;1.60;;;1.20;;
64641;SDS011;59936;51.490;5.436;2023-03-14T05:03:06;1.60;;;0.70;;
64641;SDS011;59936;51.490;5.436;2023-03-14T05:07:58;5.30;;;1.75;;
64641;SDS011;59936;51.490;5.436;2023-03-14T05:12:49;6.60;;;1.60;;
64641;SDS011;59936;51.490;5.436;2023-03-14T05:17:41;2.35;;;1.25;;
64641;SDS011;59936;51.490;5.436;2023-03-14T05:22:32;4.00;;;1.80;;
64641;SDS011;59936;51.490;5.436;2023-03-14T05:24:58;3.40;;;2.00;;
64641;SDS011;59936;51.490;5.436;2023-03-14T05:29:50;6.15;;;2.20;;
64641;SDS011;59936;51.490;5.436;2023-03-14T05:34:41;3.40;;;2.15;;
64641;SDS011;59936;51.490;5.436;2023-03-14T05:39:33;5.70;;;1.80;;
64641;SDS011;59936;51.490;5.436;2023-03-14T05:41:58;2.30;;;1.70;;
64641;SDS011;59936;51.490;5.436;2023-03-14T05:46:50;6.15;;;2.20;;
64641;SDS011;59936;51.490;5.436;2023-03-14T05:51:42;3.55;;;1.95;;
64641;SDS011;59936;51.490;5.436;2023-03-14T05:54:08;4.10;;;1.80;;
64641;SDS011;59936;51.490;5.436;2023-03-14T05:56:34;2.50;;;2.00;;
64641;SDS011;59936;51.490;5.436;2023-03-14T06:01:25;5.75;;;2.10;;
64641;SDS011;59936;51.490;5.436;2023-03-14T06:06:16;4.55;;;2.50;;
64641;SDS011;59936;51.490;5.436;2023-03-14T06:11:08;4.95;;;2.25;;
64641;SDS011;59936;51.490;5.436;2023-03-14T06:15:59;4.05;;;1.75;;
64641;SDS011;59936;51.490;5.436;2023-03-14T06:20:54;4.30;;;2.00;;
64641;SDS011;59936;51.490;5.436;2023-03-14T06:23:20;3.50;;;2.40;;
64641;SDS011;59936;51.490;5.436;2023-03-14T06:25:46;3.70;;;2.60;;
64641;SDS011;59936;51.490;5.436;2023-03-14T06:28:12;2.90;;;2.50;;
64641;SDS011;59936;51.490;5.436;2023-03-14T06:30:38;6.40;;;2.40;;
64641;SDS011;59936;51.490;5.436;2023-03-14T06:35:30;2.55;;;2.05;;
64641;SDS011;59936;51.490;5.436;2023-03-14T06:40:21;7.10;;;2.50;;
64641;SDS011;59936;51.490;5.436;2023-03-14T06:45:13;3.55;;;2.60;;
64641;SDS011;59936;51.490;5.436;2023-03-14T06:47:39;3.50;;;1.90;;
64641;SDS011;59936;51.490;5.436;2023-03-14T06:52:31;5.20;;;2.90;;
64641;SDS011;59936;51.490;5.436;2023-03-14T06:57:23;2.90;;;2.60;;
64641;SDS011;59936;51.490;5.436;2023-03-14T07:02:14;4.05;;;2.45;;
64641;SDS011;59936;51.490;5.436;2023-03-14T07:07:06;4.75;;;3.20;;
64641;SDS011;59936;51.490;5.436;2023-03-14T07:11:58;5.70;;;2.50;;
64641;SDS011;59936;51.490;5.436;2023-03-14T07:16:50;4.30;;;2.85;;
64641;SDS011;59936;51.490;5.436;2023-03-14T07:21:41;4.75;;;2.75;;
64641;SDS011;59936;51.490;5.436;2023-03-14T07:26:33;2.60;;;2.40;;
64641;SDS011;59936;51.490;5.436;2023-03-14T07:31:24;4.90;;;2.80;;
64641;SDS011;59936;51.490;5.436;2023-03-14T07:36:16;1.85;;;1.30;;
64641;SDS011;59936;51.490;5.436;2023-03-14T07:41:08;1.35;;;0.85;;
64641;SDS011;59936;51.490;5.436;2023-03-14T07:43:34;2.00;;;0.80;;
64641;SDS011;59936;51.490;5.436;2023-03-14T07:46:00;0.90;;;0.80;;
64641;SDS011;59936;51.490;5.436;2023-03-14T07:50:52;2.30;;;0.90;;
64641;SDS011;59936;51.490;5.436;2023-03-14T07:53:19;1.10;;;1.00;;
64641;SDS011;59936;51.490;5.436;2023-03-14T07:55:45;0.60;;;0.60;;
64641;SDS011;59936;51.490;5.436;2023-03-14T08:00:37;0.80;;;0.80;;
64641;SDS011;59936;51.490;5.436;2023-03-14T08:03:03;0.60;;;0.60;;
64641;SDS011;59936;51.490;5.436;2023-03-14T08:05:29;2.30;;;1.20;;
64641;SDS011;59936;51.490;5.436;2023-03-14T08:07:55;1.10;;;1.00;;
64641;SDS011;59936;51.490;5.436;2023-03-14T08:10:21;2.60;;;2.00;;
64641;SDS011;59936;51.490;5.436;2023-03-14T08:15:14;5.10;;;2.20;;
64641;SDS011;59936;51.490;5.436;2023-03-14T08:17:40;2.80;;;2.60;;
64641;SDS011;59936;51.490;5.436;2023-03-14T08:20:06;0.90;;;0.90;;
64641;SDS011;59936;51.490;5.436;2023-03-14T08:22:32;1.40;;;1.30;;
64641;SDS011;59936;51.490;5.436;2023-03-14T08:24:58;0.60;;;0.60;;
64641;SDS011;59936;51.490;5.436;2023-03-14T08:29:49;2.75;;;1.20;;
64641;SDS011;59936;51.490;5.436;2023-03-14T08:32:15;2.60;;;1.40;;
64641;SDS011;59936;51.490;5.436;2023-03-14T08:34:41;1.10;;;0.90;;
64641;SDS011;59936;51.490;5.436;2023-03-14T08:37:07;1.20;;;1.10;;
64641;SDS011;59936;51.490;5.436;2023-03-14T08:39:33;2.80;;;0.70;;
64641;SDS011;59936;51.490;5.436;2023-03-14T08:44:24;1.10;;;1.10;;
64641;SDS011;59936;51.490;5.436;2023-03-14T08:46:50;2.70;;;1.40;;
64641;SDS011;59936;51.490;5.436;2023-03-14T08:49:16;3.60;;;1.60;;
64641;SDS011;59936;51.490;5.436;2023-03-14T08:54:09;2.60;;;1.90;;
64641;SDS011;59936;51.490;5.436;2023-03-14T08:56:36;1.10;;;0.80;;
64641;SDS011;59936;51.490;5.436;2023-03-14T08:59:01;3.80;;;1.40;;
64641;SDS011;59936;51.490;5.436;2023-03-14T09:03:53;8.70;;;2.30;;
64641;SDS011;59936;51.490;5.436;2023-03-14T09:06:19;2.90;;;1.60;;
64641;SDS011;59936;51.490;5.436;2023-03-14T09:08:45;5.60;;;2.20;;
64641;SDS011;59936;51.490;5.436;2023-03-14T09:13:36;4.00;;;2.20;;
64641;SDS011;59936;51.490;5.436;2023-03-14T09:18:29;4.70;;;2.20;;
64641;SDS011;59936;51.490;5.436;2023-03-14T09:20:55;4.90;;;2.40;;
64641;SDS011;59936;51.490;5.436;2023-03-14T09:23:21;3.50;;;2.30;;
64641;SDS011;59936;51.490;5.436;2023-03-14T09:25:47;4.20;;;2.40;;
64641;SDS011;59936;51.490;5.436;2023-03-14T09:28:13;2.40;;;1.70;;
64641;SDS011;59936;51.490;5.436;2023-03-14T09:30:39;2.80;;;2.10;;
64641;SDS011;59936;51.490;5.436;2023-03-14T09:35:30;0.90;;;0.90;;
64641;SDS011;59936;51.490;5.436;2023-03-14T09:37:58;5.10;;;2.10;;
64641;SDS011;59936;51.490;5.436;2023-03-14T09:40:24;1.40;;;1.30;;
64641;SDS011;59936;51.490;5.436;2023-03-14T09:42:56;1.30;;;1.30;;
64641;SDS011;59936;51.490;5.436;2023-03-14T09:47:48;0.50;;;0.50;;
64641;SDS011;59936;51.490;5.436;2023-03-14T09:50:14;0.30;;;0.30;;
64641;SDS011;59936;51.490;5.436;2023-03-14T09:52:40;0.70;;;0.70;;
64641;SDS011;59936;51.490;5.436;2023-03-14T09:55:17;0.40;;;0.40;;
64641;SDS011;59936;51.490;5.436;2023-03-14T09:57:46;0.40;;;0.40;;
64641;SDS011;59936;51.490;5.436;2023-03-14T10:00:15;1.10;;;0.70;;
64641;SDS011;59936;51.490;5.436;2023-03-14T10:02:50;0.50;;;0.50;;
64641;SDS011;59936;51.490;5.436;2023-03-14T10:05:20;1.10;;;0.60;;
64641;SDS011;59936;51.490;5.436;2023-03-14T10:07:47;0.60;;;0.60;;
64641;SDS011;59936;51.490;5.436;2023-03-14T10:12:43;3.40;;;0.50;;
64641;SDS011;59936;51.490;5.436;2023-03-14T10:15:12;2.40;;;0.70;;
64641;SDS011;59936;51.490;5.436;2023-03-14T10:17:41;5.90;;;0.90;;
64641;SDS011;59936;51.490;5.436;2023-03-14T10:20:32;0.90;;;0.80;;
64641;SDS011;59936;51.490;5.436;2023-03-14T10:23:18;1.40;;;0.70;;
64641;SDS011;59936;51.490;5.436;2023-03-14T10:26:11;1.60;;;0.50;;
64641;SDS011;59936;51.490;5.436;2023-03-14T10:28:45;4.00;;;0.80;;
64641;SDS011;59936;51.490;5.436;2023-03-14T10:31:13;2.80;;;1.00;;
64641;SDS011;59936;51.490;5.436;2023-03-14T10:33:40;4.10;;;0.90;;
64641;SDS011;59936;51.490;5.436;2023-03-14T10:38:48;0.70;;;0.50;;
64641;SDS011;59936;51.490;5.436;2023-03-14T10:43:43;4.80;;;1.10;;
64641;SDS011;59936;51.490;5.436;2023-03-14T10:46:14;3.60;;;0.80;;
64641;SDS011;59936;51.490;5.436;2023-03-14T10:48:42;7.20;;;2.40;;
64641;SDS011;59936;51.490;5.436;2023-03-14T10:51:09;4.50;;;1.30;;
64641;SDS011;59936;51.490;5.436;2023-03-14T10:54:00;4.50;;;1.00;;
64641;SDS011;59936;51.490;5.436;2023-03-14T10:56:38;5.90;;;1.40;;
64641;SDS011;59936;51.490;5.436;2023-03-14T10:59:07;5.70;;;1.50;;
64641;SDS011;59936;51.490;5.436;2023-03-14T11:01:44;3.20;;;1.00;;
64641;SDS011;59936;51.490;5.436;2023-03-14T11:04:21;6.80;;;1.40;;
64641;SDS011;59936;51.490;5.436;2023-03-14T11:09:45;8.60;;;1.50;;
64641;SDS011;59936;51.490;5.436;2023-03-14T11:12:19;5.10;;;1.00;;
64641;SDS011;59936;51.490;5.436;2023-03-14T11:15:15;5.40;;;1.40;;
64641;SDS011;59936;51.490;5.436;2023-03-14T11:28:22;10.20;;;1.70;;
64641;SDS011;59936;51.490;5.436;2023-03-14T11:30:55;8.90;;;1.80;;
64641;SDS011;59936;51.490;5.436;2023-03-14T11:36:51;4.80;;;2.00;;
64641;SDS011;59936;51.490;5.436;2023-03-14T11:39:21;4.10;;;1.50;;
64641;SDS011;59936;51.490;5.436;2023-03-14T11:41:53;3.90;;;1.30;;
64641;SDS011;59936;51.490;5.436;2023-03-14T11:44:33;7.20;;;2.30;;
64641;SDS011;59936;51.490;5.436;2023-03-14T11:47:06;10.70;;;2.20;;
64641;SDS011;59936;51.490;5.436;2023-03-14T11:49:45;8.40;;;2.10;;
64641;SDS011;59936;51.490;5.436;2023-03-14T11:52:13;10.80;;;1.60;;
64641;SDS011;59936;51.490;5.436;2023-03-14T11:54:56;9.90;;;1.70;;
64641;SDS011;59936;51.490;5.436;2023-03-14T11:57:28;9.20;;;2.20;;
64641;SDS011;59936;51.490;5.436;2023-03-14T12:05:25;9.70;;;2.50;;
64641;SDS011;59936;51.490;5.436;2023-03-14T12:10:42;12.80;;;2.40;;
64641;SDS011;59936;51.490;5.436;2023-03-14T12:13:11;15.80;;;2.30;;
64641;SDS011;59936;51.490;5.436;2023-03-14T12:15:58;11.10;;;1.90;;
64641;SDS011;59936;51.490;5.436;2023-03-14T12:20:57;6.30;;;2.20;;
64641;SDS011;59936;51.490;5.436;2023-03-14T12:23:33;6.10;;;2.20;;
64641;SDS011;59936;51.490;5.436;2023-03-14T12:26:08;15.00;;;2.30;;
64641;SDS011;59936;51.490;5.436;2023-03-14T12:29:24;14.40;;;2.00;;
64641;SDS011;59936;51.490;5.436;2023-03-14T12:34:02;7.60;;;1.90;;
64641;SDS011;59936;51.490;5.436;2023-03-14T12:36:49;5.20;;;1.20;;
64641;SDS011;59936;51.490;5.436;2023-03-14T12:42:12;5.80;;;1.70;;
64641;SDS011;59936;51.490;5.436;2023-03-14T12:53:24;12.80;;;3.40;;
64641;SDS011;59936;51.490;5.436;2023-03-14T13:01:55;6.10;;;2.00;;
64641;SDS011;59936;51.490;5.436;2023-03-14T13:04:44;4.60;;;1.40;;
64641;SDS011;59936;51.490;5.436;2023-03-14T13:07:13;11.30;;;2.70;;
64641;SDS011;59936;51.490;5.436;2023-03-14T13:12:29;14.00;;;2.30;;
64641;SDS011;59936;51.490;5.436;2023-03-14T13:15:02;4.50;;;1.10;;
64641;SDS011;59936;51.490;5.436;2023-03-14T13:17:39;11.50;;;2.10;;
64641;SDS011;59936;51.490;5.436;2023-03-14T13:20:13;5.30;;;1.90;;
64641;SDS011;59936;51.490;5.436;2023-03-14T13:22:47;3.40;;;1.30;;
64641;SDS011;59936;51.490;5.436;2023-03-14T13:25:16;8.30;;;1.60;;
64641;SDS011;59936;51.490;5.436;2023-03-14T13:27:42;7.60;;;1.50;;
64641;SDS011;59936;51.490;5.436;2023-03-14T13:32:48;5.40;;;1.50;;
64641;SDS011;59936;51.490;5.436;2023-03-14T13:35:26;10.80;;;2.40;;
64641;SDS011;59936;51.490;5.436;2023-03-14T13:37:55;10.40;;;2.60;;
64641;SDS011;59936;51.490;5.436;2023-03-14T13:40:28;9.00;;;2.20;;
64641;SDS011;59936;51.490;5.436;2023-03-14T13:42:59;4.50;;;1.50;;
64641;SDS011;59936;51.490;5.436;2023-03-14T13:45:28;3.00;;;1.40;;
64641;SDS011;59936;51.490;5.436;2023-03-14T13:47:54;8.10;;;2.00;;
64641;SDS011;59936;51.490;5.436;2023-03-14T13:50:20;4.70;;;1.50;;
64641;SDS011;59936;51.490;5.436;2023-03-14T13:55:16;5.15;;;1.70;;
64641;SDS011;59936;51.490;5.436;2023-03-14T13:57:47;3.50;;;1.40;;
64641;SDS011;59936;51.490;5.436;2023-03-14T14:00:21;6.50;;;1.80;;
64641;SDS011;59936;51.490;5.436;2023-03-14T14:02:49;10.10;;;1.80;;
64641;SDS011;59936;51.490;5.436;2023-03-14T14:07:42;5.80;;;1.40;;
64641;SDS011;59936;51.490;5.436;2023-03-14T14:10:10;7.20;;;1.50;;
64641;SDS011;59936;51.490;5.436;2023-03-14T14:12:39;8.20;;;1.50;;
64641;SDS011;59936;51.490;5.436;2023-03-14T14:15:29;7.80;;;1.30;;
64641;SDS011;59936;51.490;5.436;2023-03-14T14:18:00;7.20;;;1.50;;
64641;SDS011;59936;51.490;5.436;2023-03-14T14:23:19;7.10;;;1.70;;
64641;SDS011;59936;51.490;5.436;2023-03-14T14:25:48;7.60;;;1.60;;
64641;SDS011;59936;51.490;5.436;2023-03-14T14:28:33;3.60;;;1.50;;
64641;SDS011;59936;51.490;5.436;2023-03-14T14:33:42;3.00;;;1.30;;
64641;SDS011;59936;51.490;5.436;2023-03-14T14:41:39;7.70;;;1.60;;
64641;SDS011;59936;51.490;5.436;2023-03-14T14:44:06;3.40;;;1.20;;
64641;SDS011;59936;51.490;5.436;2023-03-14T14:46:34;7.50;;;1.60;;
64641;SDS011;59936;51.490;5.436;2023-03-14T14:49:06;2.60;;;1.40;;
64641;SDS011;59936;51.490;5.436;2023-03-14T14:51:41;4.50;;;1.40;;
64641;SDS011;59936;51.490;5.436;2023-03-14T14:54:10;4.00;;;1.70;;
64641;SDS011;59936;51.490;5.436;2023-03-14T14:56:39;1.90;;;1.00;;
64641;SDS011;59936;51.490;5.436;2023-03-14T14:59:06;5.30;;;1.40;;
64641;SDS011;59936;51.490;5.436;2023-03-14T15:01:43;5.10;;;1.70;;
64641;SDS011;59936;51.490;5.436;2023-03-14T15:04:10;5.60;;;1.40;;
64641;SDS011;59936;51.490;5.436;2023-03-14T15:06:38;6.20;;;1.80;;
64641;SDS011;59936;51.490;5.436;2023-03-14T15:09:04;4.30;;;1.10;;
64641;SDS011;59936;51.490;5.436;2023-03-14T15:11:30;2.70;;;0.70;;
64641;SDS011;59936;51.490;5.436;2023-03-14T15:13:56;1.30;;;0.60;;
64641;SDS011;59936;51.490;5.436;2023-03-14T15:16:23;3.80;;;1.20;;
64641;SDS011;59936;51.490;5.436;2023-03-14T15:18:56;5.00;;;1.00;;
64641;SDS011;59936;51.490;5.436;2023-03-14T15:21:24;2.50;;;1.20;;
64641;SDS011;59936;51.490;5.436;2023-03-14T15:23:51;4.70;;;1.20;;
64641;SDS011;59936;51.490;5.436;2023-03-14T15:26:18;8.00;;;1.40;;
64641;SDS011;59936;51.490;5.436;2023-03-14T15:28:46;7.30;;;1.70;;
64641;SDS011;59936;51.490;5.436;2023-03-14T15:33:38;3.70;;;1.20;;
64641;SDS011;59936;51.490;5.436;2023-03-14T15:36:06;6.80;;;1.50;;
64641;SDS011;59936;51.490;5.436;2023-03-14T15:38:41;2.90;;;1.10;;
64641;SDS011;59936;51.490;5.436;2023-03-14T15:41:07;7.80;;;1.40;;
64641;SDS011;59936;51.490;5.436;2023-03-14T15:43:34;8.20;;;1.70;;
64641;SDS011;59936;51.490;5.436;2023-03-14T15:46:00;7.00;;;1.60;;
64641;SDS011;59936;51.490;5.436;2023-03-14T15:48:26;1.80;;;1.00;;
64641;SDS011;59936;51.490;5.436;2023-03-14T15:53:18;0.95;;;0.60;;
64641;SDS011;59936;51.490;5.436;2023-03-14T15:55:43;2.30;;;1.40;;
64641;SDS011;59936;51.490;5.436;2023-03-14T15:58:11;4.10;;;1.70;;
64641;SDS011;59936;51.490;5.436;2023-03-14T16:00:42;4.40;;;1.60;;
64641;SDS011;59936;51.490;5.436;2023-03-14T16:03:07;1.20;;;0.80;;
64641;SDS011;59936;51.490;5.436;2023-03-14T16:07:59;3.70;;;1.10;;
64641;SDS011;59936;51.490;5.436;2023-03-14T16:10:25;7.00;;;1.60;;
64641;SDS011;59936;51.490;5.436;2023-03-14T16:12:51;4.20;;;1.30;;
64641;SDS011;59936;51.490;5.436;2023-03-14T16:15:16;6.20;;;1.40;;
64641;SDS011;59936;51.490;5.436;2023-03-14T16:17:42;4.90;;;1.80;;
64641;SDS011;59936;51.490;5.436;2023-03-14T16:20:08;5.90;;;1.80;;
64641;SDS011;59936;51.490;5.436;2023-03-14T16:22:35;10.70;;;1.80;;
64641;SDS011;59936;51.490;5.436;2023-03-14T16:25:02;3.50;;;1.00;;
64641;SDS011;59936;51.490;5.436;2023-03-14T16:27:31;4.20;;;1.30;;
64641;SDS011;59936;51.490;5.436;2023-03-14T16:29:58;7.00;;;1.40;;
64641;SDS011;59936;51.490;5.436;2023-03-14T16:32:24;5.10;;;1.90;;
64641;SDS011;59936;51.490;5.436;2023-03-14T16:34:51;8.60;;;1.50;;
64641;SDS011;59936;51.490;5.436;2023-03-14T16:37:17;5.00;;;2.10;;
64641;SDS011;59936;51.490;5.436;2023-03-14T16:39:43;7.00;;;1.50;;
64641;SDS011;59936;51.490;5.436;2023-03-14T16:42:08;2.80;;;1.10;;
64641;SDS011;59936;51.490;5.436;2023-03-14T16:44:34;9.40;;;2.30;;
64641;SDS011;59936;51.490;5.436;2023-03-14T16:47:00;4.10;;;1.20;;
64641;SDS011;59936;51.490;5.436;2023-03-14T16:49:26;2.60;;;1.10;;
64641;SDS011;59936;51.490;5.436;2023-03-14T16:51:52;12.20;;;1.90;;
64641;SDS011;59936;51.490;5.436;2023-03-14T16:54:18;3.70;;;1.20;;
64641;SDS011;59936;51.490;5.436;2023-03-14T16:56:43;3.60;;;1.30;;
64641;SDS011;59936;51.490;5.436;2023-03-14T16:59:09;5.60;;;1.60;;
64641;SDS011;59936;51.490;5.436;2023-03-14T17:01:35;7.80;;;1.70;;
64641;SDS011;59936;51.490;5.436;2023-03-14T17:04:01;4.30;;;1.40;;
64641;SDS011;59936;51.490;5.436;2023-03-14T17:06:27;7.20;;;2.20;;
64641;SDS011;59936;51.490;5.436;2023-03-14T17:11:20;2.60;;;1.20;;
64641;SDS011;59936;51.490;5.436;2023-03-14T17:13:46;4.50;;;1.40;;
64641;SDS011;59936;51.490;5.436;2023-03-14T17:18:38;2.70;;;0.85;;
64641;SDS011;59936;51.490;5.436;2023-03-14T17:21:04;2.40;;;1.10;;
64641;SDS011;59936;51.490;5.436;2023-03-14T17:23:31;4.10;;;1.60;;
64641;SDS011;59936;51.490;5.436;2023-03-14T17:25:58;7.30;;;2.40;;
64641;SDS011;59936;51.490;5.436;2023-03-14T17:30:50;3.90;;;1.40;;
64641;SDS011;59936;51.490;5.436;2023-03-14T17:33:25;6.60;;;1.40;;
64641;SDS011;59936;51.490;5.436;2023-03-14T17:35:52;6.00;;;1.90;;
64641;SDS011;59936;51.490;5.436;2023-03-14T17:38:18;6.90;;;1.90;;
64641;SDS011;59936;51.490;5.436;2023-03-14T17:40:46;5.30;;;1.60;;
64641;SDS011;59936;51.490;5.436;2023-03-14T17:43:12;7.40;;;2.00;;
64641;SDS011;59936;51.490;5.436;2023-03-14T17:45:38;0.90;;;0.90;;
64641;SDS011;59936;51.490;5.436;2023-03-14T17:48:04;4.30;;;1.30;;
64641;SDS011;59936;51.490;5.436;2023-03-14T17:52:55;7.30;;;1.70;;
64641;SDS011;59936;51.490;5.436;2023-03-14T17:55:21;5.70;;;1.60;;
64641;SDS011;59936;51.490;5.436;2023-03-14T17:57:47;8.20;;;2.30;;
64641;SDS011;59936;51.490;5.436;2023-03-14T18:00:13;2.70;;;1.40;;
64641;SDS011;59936;51.490;5.436;2023-03-14T18:02:39;5.00;;;1.40;;
64641;SDS011;59936;51.490;5.436;2023-03-14T18:05:05;4.90;;;2.10;;
64641;SDS011;59936;51.490;5.436;2023-03-14T18:07:32;8.20;;;1.40;;
64641;SDS011;59936;51.490;5.436;2023-03-14T18:09:59;8.30;;;2.10;;
64641;SDS011;59936;51.490;5.436;2023-03-14T18:12:24;3.00;;;1.00;;
64641;SDS011;59936;51.490;5.436;2023-03-14T18:14:50;8.40;;;1.40;;
64641;SDS011;59936;51.490;5.436;2023-03-14T18:17:16;4.40;;;1.50;;
64641;SDS011;59936;51.490;5.436;2023-03-14T18:19:42;5.80;;;2.00;;
64641;SDS011;59936;51.490;5.436;2023-03-14T18:22:08;14.30;;;2.20;;
64641;SDS011;59936;51.490;5.436;2023-03-14T18:24:34;9.30;;;1.90;;
64641;SDS011;59936;51.490;5.436;2023-03-14T18:26:59;15.20;;;2.00;;
64641;SDS011;59936;51.490;5.436;2023-03-14T18:29:25;2.20;;;1.40;;
64641;SDS011;59936;51.490;5.436;2023-03-14T18:31:51;6.50;;;1.30;;
64641;SDS011;59936;51.490;5.436;2023-03-14T18:34:17;7.30;;;1.80;;
64641;SDS011;59936;51.490;5.436;2023-03-14T18:36:43;8.60;;;1.60;;
64641;SDS011;59936;51.490;5.436;2023-03-14T18:39:09;7.00;;;2.00;;
64641;SDS011;59936;51.490;5.436;2023-03-14T18:41:35;4.00;;;1.90;;
64641;SDS011;59936;51.490;5.436;2023-03-14T18:44:02;12.10;;;2.60;;
64641;SDS011;59936;51.490;5.436;2023-03-14T18:46:28;9.50;;;2.20;;
64641;SDS011;59936;51.490;5.436;2023-03-14T18:48:54;12.90;;;2.70;;
64641;SDS011;59936;51.490;5.436;2023-03-14T18:51:22;6.70;;;2.00;;
64641;SDS011;59936;51.490;5.436;2023-03-14T18:53:49;8.30;;;2.40;;
64641;SDS011;59936;51.490;5.436;2023-03-14T18:56:15;7.60;;;2.20;;
64641;SDS011;59936;51.490;5.436;2023-03-14T18:58:40;10.20;;;1.90;;
64641;SDS011;59936;51.490;5.436;2023-03-14T19:03:33;5.60;;;2.15;;
64641;SDS011;59936;51.490;5.436;2023-03-14T19:05:59;8.50;;;2.40;;
64641;SDS011;59936;51.490;5.436;2023-03-14T19:08:26;10.60;;;2.90;;
64641;SDS011;59936;51.490;5.436;2023-03-14T19:10:53;8.40;;;2.60;;
64641;SDS011;59936;51.490;5.436;2023-03-14T19:13:20;6.30;;;1.90;;
64641;SDS011;59936;51.490;5.436;2023-03-14T19:15:47;8.90;;;2.30;;
64641;SDS011;59936;51.490;5.436;2023-03-14T19:18:13;8.30;;;1.90;;
64641;SDS011;59936;51.490;5.436;2023-03-14T19:20:39;12.70;;;2.60;;
64641;SDS011;59936;51.490;5.436;2023-03-14T19:23:06;9.10;;;2.20;;
64641;SDS011;59936;51.490;5.436;2023-03-14T19:25:33;4.70;;;1.90;;
64641;SDS011;59936;51.490;5.436;2023-03-14T19:27:59;5.80;;;1.80;;
64641;SDS011;59936;51.490;5.436;2023-03-14T19:30:25;9.80;;;1.80;;
64641;SDS011;59936;51.490;5.436;2023-03-14T19:32:51;9.20;;;2.00;;
64641;SDS011;59936;51.490;5.436;2023-03-14T19:35:16;6.00;;;2.00;;
64641;SDS011;59936;51.490;5.436;2023-03-14T19:37:42;6.80;;;2.20;;
64641;SDS011;59936;51.490;5.436;2023-03-14T19:40:09;6.10;;;2.20;;
64641;SDS011;59936;51.490;5.436;2023-03-14T19:42:35;7.60;;;3.00;;
64641;SDS011;59936;51.490;5.436;2023-03-14T19:45:01;12.90;;;2.90;;
64641;SDS011;59936;51.490;5.436;2023-03-14T19:47:27;14.60;;;3.50;;
64641;SDS011;59936;51.490;5.436;2023-03-14T19:49:53;9.20;;;3.50;;
64641;SDS011;59936;51.490;5.436;2023-03-14T19:52:19;11.00;;;4.00;;
64641;SDS011;59936;51.490;5.436;2023-03-14T19:54:45;5.20;;;2.70;;